Time;durP1;ratioP1;P1;durP2;ratioP2;P2;SDS_P1;SDS_P2;PMS_P1;PMS_P2;Temp;Humidity;BMP_temperature;BMP_pressure;BME280_temperature;BME280_humidity;BME280_pressure;Samples;Min_cycle;Max_cycle;Signal;HPM_P1;HPM_P2
2022/05/16 00:00:31;;;;;;;6.65;2.38;;;19.30;92.20;;;;;;5038015;28;20485;-30
2022/05/16 00:03:03;;;;;;;5.45;2.10;;;19.30;92.30;;;;;;5050427;28;20036;-30
2022/05/16 00:05:30;;;;;;;9.38;2.03;;;19.30;92.40;;;;;;5047150;28;20030;-34
2022/05/16 00:07:56;;;;;;;4.60;2.15;;;19.30;92.40;;;;;;5041198;28;20029;-30
2022/05/16 00:10:23;;;;;;;7.75;2.17;;;19.30;92.50;;;;;;5053168;28;20025;-37
2022/05/16 00:12:48;;;;;;;5.63;2.58;;;19.20;92.60;;;;;;5049027;28;20040;-38
2022/05/16 00:15:17;;;;;;;7.15;2.30;;;19.20;92.60;;;;;;5043819;28;20021;-38
2022/05/16 00:17:43;;;;;;;5.00;1.60;;;19.20;92.70;;;;;;5049716;28;20094;-38
2022/05/16 00:20:10;;;;;;;6.97;2.15;;;19.10;92.80;;;;;;5036292;28;20473;-30
2022/05/16 00:22:37;;;;;;;14.33;2.50;;;19.00;92.90;;;;;;5051519;28;20056;-30
2022/05/16 00:25:06;;;;;;;5.05;2.22;;;19.00;92.90;;;;;;5041327;28;20323;-34
2022/05/16 00:27:34;;;;;;;5.30;2.10;;;19.00;93.00;;;;;;5047836;28;20495;-36
2022/05/16 00:30:05;;;;;;;23.17;2.53;;;19.00;93.20;;;;;;5053539;28;20477;-33
2022/05/16 00:32:31;;;;;;;14.48;2.17;;;18.90;93.10;;;;;;5049470;28;20021;-30
2022/05/16 00:34:56;;;;;;;8.57;2.70;;;18.90;93.40;;;;;;5046999;28;20439;-32
2022/05/16 00:37:22;;;;;;;12.68;2.33;;;18.80;93.40;;;;;;5042821;28;20650;-38
2022/05/16 00:39:48;;;;;;;4.22;1.92;;;18.80;93.50;;;;;;5054440;28;20036;-29
2022/05/16 00:42:14;;;;;;;8.27;2.33;;;18.80;93.50;;;;;;5053972;28;20512;-35
2022/05/16 00:44:40;;;;;;;7.68;3.15;;;18.80;93.70;;;;;;5050065;28;20033;-32
2022/05/16 00:47:07;;;;;;;10.68;1.83;;;18.70;93.80;;;;;;5048275;28;20017;-32
2022/05/16 00:49:36;;;;;;;4.85;2.53;;;18.70;93.80;;;;;;5043161;28;20022;-35
2022/05/16 00:52:07;;;;;;;7.65;1.90;;;18.60;93.90;;;;;;5048879;28;20021;-33
2022/05/16 00:54:41;;;;;;;8.20;2.38;;;18.60;93.90;;;;;;5050607;28;20028;-31
2022/05/16 00:57:15;;;;;;;8.25;1.83;;;18.60;94.00;;;;;;5042071;28;20033;-31
2022/05/16 00:59:55;;;;;;;7.75;2.22;;;18.50;94.10;;;;;;5049079;28;20028;-37
2022/05/16 01:05:09;;;;;;;7.25;2.35;;;18.50;94.20;;;;;;5048423;28;20052;-33
2022/05/16 01:07:38;;;;;;;8.95;2.00;;;18.50;94.20;;;;;;5046616;28;20100;-29
2022/05/16 01:10:07;;;;;;;9.73;2.65;;;18.50;94.20;;;;;;5048419;28;20033;-30
2022/05/16 01:12:35;;;;;;;11.30;2.63;;;18.50;94.30;;;;;;5046839;28;20935;-31
2022/05/16 01:15:04;;;;;;;3.50;1.77;;;18.40;94.50;;;;;;5051767;28;20025;-30
2022/05/16 01:17:30;;;;;;;8.23;2.25;;;18.40;94.50;;;;;;5048759;28;20025;-32
2022/05/16 01:19:56;;;;;;;7.05;2.35;;;18.40;94.80;;;;;;5044542;28;20024;-34
2022/05/16 01:22:24;;;;;;;9.45;2.28;;;18.30;94.60;;;;;;5049751;28;20040;-30
2022/05/16 01:24:53;;;;;;;10.02;2.67;;;18.30;94.60;;;;;;5053579;28;20374;-31
2022/05/16 01:27:18;;;;;;;8.80;2.72;;;18.30;94.70;;;;;;5052838;28;20493;-36
2022/05/16 01:29:44;;;;;;;12.70;2.50;;;18.30;94.70;;;;;;5042791;28;20052;-32
2022/05/16 01:32:10;;;;;;;13.00;1.90;;;18.20;95.10;;;;;;5050932;28;20071;-32
2022/05/16 01:34:37;;;;;;;10.98;2.47;;;18.20;95.10;;;;;;5046926;28;20116;-32
2022/05/16 01:37:03;;;;;;;4.30;1.90;;;18.20;95.10;;;;;;5033901;28;20029;-32
2022/05/16 01:39:32;;;;;;;13.82;2.95;;;18.10;95.00;;;;;;5041614;28;20079;-33
2022/05/16 01:41:57;;;;;;;8.50;2.25;;;18.10;95.20;;;;;;5037215;28;20056;-31
2022/05/16 01:44:23;;;;;;;6.05;2.35;;;18.00;95.30;;;;;;5048149;28;20029;-49
2022/05/16 01:46:49;;;;;;;7.85;2.58;;;18.00;95.30;;;;;;5039781;28;20036;-39
2022/05/16 01:49:15;;;;;;;6.32;2.15;;;18.00;95.40;;;;;;5033182;28;20025;-39
2022/05/16 01:51:41;;;;;;;9.10;2.45;;;18.00;95.30;;;;;;5036747;28;20112;-38
2022/05/16 01:54:07;;;;;;;7.25;2.53;;;18.00;95.40;;;;;;5041921;28;20021;-37
2022/05/16 01:56:36;;;;;;;10.38;2.38;;;18.00;95.50;;;;;;5045799;28;20029;-38
2022/05/16 01:59:04;;;;;;;7.55;2.20;;;18.00;95.50;;;;;;5037678;28;20036;-38
2022/05/16 02:01:32;;;;;;;9.88;2.22;;;17.90;95.60;;;;;;5043244;28;20030;-37
2022/05/16 02:03:57;;;;;;;6.95;2.60;;;17.90;95.70;;;;;;5045143;28;20036;-37
2022/05/16 02:06:25;;;;;;;9.30;1.90;;;17.90;95.70;;;;;;5047765;28;20082;-39
2022/05/16 02:08:51;;;;;;;9.35;2.10;;;17.90;95.80;;;;;;5049289;28;20028;-38
2022/05/16 02:11:17;;;;;;;8.60;2.50;;;17.90;96.10;;;;;;5052756;28;20098;-39
2022/05/16 02:13:43;;;;;;;7.57;1.98;;;17.90;95.90;;;;;;5049540;28;20535;-38
2022/05/16 02:16:10;;;;;;;9.43;1.73;;;17.90;95.90;;;;;;5047922;28;20025;-38
2022/05/16 02:18:36;;;;;;;4.65;2.40;;;17.90;95.90;;;;;;5040443;28;20499;-38
2022/05/16 02:26:32;;;;;;;4.47;1.80;;;18.00;95.80;;;;;;5049461;28;20531;-35
2022/05/16 02:28:58;;;;;;;8.18;2.58;;;18.10;95.70;;;;;;5041352;28;20033;-37
2022/05/16 02:31:23;;;;;;;5.75;2.00;;;18.10;95.70;;;;;;5052627;28;20407;-38
2022/05/16 02:33:49;;;;;;;9.35;2.42;;;18.10;95.60;;;;;;5039433;28;20033;-41
2022/05/16 02:36:15;;;;;;;7.93;2.30;;;18.10;95.60;;;;;;5032223;28;20105;-37
2022/05/16 02:38:42;;;;;;;9.65;2.05;;;18.10;95.60;;;;;;5033428;28;20033;-38
2022/05/16 02:41:08;;;;;;;7.32;2.60;;;18.20;95.50;;;;;;5038908;28;20481;-32
2022/05/16 02:43:33;;;;;;;6.53;2.45;;;18.20;95.50;;;;;;5051271;28;20028;-30
2022/05/16 02:45:59;;;;;;;4.40;2.20;;;18.20;95.40;;;;;;5051073;28;20029;-30
2022/05/16 02:48:25;;;;;;;7.05;2.40;;;18.30;95.50;;;;;;5037423;28;20021;-32
2022/05/16 02:50:50;;;;;;;5.72;2.05;;;18.20;95.40;;;;;;5049708;28;20021;-29
2022/05/16 02:53:16;;;;;;;7.22;2.67;;;18.20;95.70;;;;;;5048700;28;20025;-40
2022/05/16 02:55:42;;;;;;;8.02;2.40;;;18.20;95.50;;;;;;5052111;28;20493;-30
2022/05/16 02:58:08;;;;;;;5.95;2.35;;;18.20;95.50;;;;;;5043484;28;20037;-31
2022/05/16 03:00:34;;;;;;;7.25;2.72;;;18.20;95.60;;;;;;5054716;28;20043;-35
2022/05/16 03:02:59;;;;;;;11.15;2.20;;;18.20;95.60;;;;;;5045355;28;20473;-29
2022/05/16 03:05:25;;;;;;;4.85;2.15;;;18.20;95.60;;;;;;5049191;28;20471;-31
2022/05/16 03:07:51;;;;;;;6.10;2.10;;;18.20;95.70;;;;;;5042331;28;20113;-30
2022/05/16 03:10:17;;;;;;;2.47;1.83;;;18.10;95.70;;;;;;5052142;28;20124;-31
2022/05/16 03:12:45;;;;;;;10.52;2.28;;;18.10;95.80;;;;;;5048968;28;20040;-31
2022/05/16 03:15:11;;;;;;;8.57;1.92;;;18.10;95.80;;;;;;5055949;28;20432;-33
2022/05/16 03:17:38;;;;;;;3.88;2.05;;;18.10;95.80;;;;;;5048358;28;20477;-31
2022/05/16 03:20:05;;;;;;;5.18;2.13;;;18.10;95.80;;;;;;5051150;28;20017;-32
2022/05/16 03:22:31;;;;;;;6.00;2.80;;;18.10;95.90;;;;;;5049720;28;20042;-36
2022/05/16 03:24:57;;;;;;;5.82;2.45;;;18.00;96.00;;;;;;5055634;28;20036;-34
2022/05/16 03:27:23;;;;;;;6.13;2.30;;;18.00;96.10;;;;;;5054369;28;20025;-47
2022/05/16 03:29:49;;;;;;;8.95;2.33;;;18.00;96.10;;;;;;5055475;28;20044;-37
2022/05/16 03:32:15;;;;;;;12.73;3.20;;;18.00;96.10;;;;;;5052581;28;20087;-36
2022/05/16 03:34:40;;;;;;;4.82;2.05;;;18.00;96.10;;;;;;5050659;28;20037;-40
2022/05/16 03:37:06;;;;;;;5.57;2.47;;;17.90;96.20;;;;;;5040518;28;20064;-39
2022/05/16 03:42:15;;;;;;;6.10;3.50;;;17.90;96.20;;;;;;5038796;28;20040;-31
2022/05/16 03:44:41;;;;;;;4.82;2.30;;;17.90;96.20;;;;;;5039128;28;20029;-34
2022/05/16 03:47:06;;;;;;;13.98;2.70;;;17.90;96.30;;;;;;5045722;28;20060;-31
2022/05/16 03:49:32;;;;;;;5.28;2.08;;;17.90;96.30;;;;;;5054458;28;20025;-29
2022/05/16 03:51:59;;;;;;;8.07;2.03;;;17.90;96.40;;;;;;5054295;28;20056;-33
2022/05/16 03:54:24;;;;;;;3.88;2.13;;;17.90;96.40;;;;;;5054439;28;20036;-30
2022/05/16 03:56:50;;;;;;;2.95;2.20;;;17.90;96.40;;;;;;5055064;28;20025;-37
2022/05/16 03:59:16;;;;;;;8.45;2.25;;;17.90;96.50;;;;;;5054171;28;20451;-38
2022/05/16 04:01:44;;;;;;;9.98;2.45;;;17.80;96.50;;;;;;5054912;28;20029;-38
2022/05/16 04:04:10;;;;;;;2.42;1.92;;;17.90;96.50;;;;;;5042980;28;20432;-36
2022/05/16 04:06:36;;;;;;;5.22;2.28;;;17.80;96.60;;;;;;5053851;28;20600;-29
2022/05/16 04:09:02;;;;;;;6.70;2.67;;;17.80;96.70;;;;;;5045452;28;20060;-32
2022/05/16 04:11:28;;;;;;;4.40;2.25;;;17.80;96.80;;;;;;5054786;28;20529;-29
2022/05/16 04:13:53;;;;;;;7.28;2.20;;;17.70;96.80;;;;;;5039816;28;20149;-29
2022/05/16 04:16:19;;;;;;;4.65;2.30;;;17.70;96.90;;;;;;5046950;28;20478;-31
2022/05/16 04:18:46;;;;;;;5.22;2.30;;;17.70;96.90;;;;;;5044768;28;20029;-29
2022/05/16 04:21:12;;;;;;;9.15;2.85;;;17.70;97.00;;;;;;5050483;28;20022;-34
2022/05/16 04:23:38;;;;;;;10.52;3.15;;;17.70;97.10;;;;;;5052007;28;20017;-32
2022/05/16 04:26:03;;;;;;;7.38;2.85;;;17.70;97.10;;;;;;5041666;28;20070;-32
2022/05/16 04:28:30;;;;;;;10.70;2.95;;;17.70;97.20;;;;;;5042750;28;20077;-30
2022/05/16 04:30:56;;;;;;;6.80;2.53;;;17.70;97.20;;;;;;5040669;28;20057;-32
2022/05/16 04:33:21;;;;;;;9.27;2.70;;;17.70;97.20;;;;;;5044783;28;20025;-37
2022/05/16 04:35:47;;;;;;;9.95;2.65;;;17.70;97.30;;;;;;5041223;28;20112;-38
2022/05/16 04:38:13;;;;;;;9.00;2.75;;;17.70;97.30;;;;;;5047188;28;20082;-38
2022/05/16 04:42:40;;;;;;;8.43;2.33;;;17.70;97.30;;;;;;5043648;28;20037;-64
2022/05/16 04:43:24;;;;;;;8.13;2.80;;;17.80;97.40;;;;;;5045937;28;20037;-32
2022/05/16 04:45:50;;;;;;;6.00;2.40;;;17.80;97.40;;;;;;5054103;28;20090;-30
2022/05/16 04:48:16;;;;;;;7.05;2.60;;;17.80;97.50;;;;;;5041903;28;20029;-35
2022/05/16 04:50:41;;;;;;;6.35;3.58;;;17.80;97.50;;;;;;5054344;28;20028;-29
2022/05/16 04:53:07;;;;;;;3.92;2.40;;;17.90;97.50;;;;;;5041873;28;20104;-29
2022/05/16 04:55:32;;;;;;;5.53;2.20;;;17.80;97.50;;;;;;5038904;28;20040;-30
2022/05/16 04:57:58;;;;;;;11.52;3.65;;;17.80;97.60;;;;;;5038098;28;20028;-28
2022/05/16 05:00:25;;;;;;;7.35;2.92;;;17.90;97.60;;;;;;5051542;28;20032;-26
2022/05/16 05:02:51;;;;;;;6.53;2.28;;;17.90;97.70;;;;;;5044319;28;20137;-34
2022/05/16 05:05:17;;;;;;;7.53;3.40;;;17.90;97.70;;;;;;5042527;28;20112;-29
2022/05/16 05:07:44;;;;;;;4.68;2.60;;;17.90;97.70;;;;;;5053806;28;20021;-28
2022/05/16 05:15:42;;;;;;;10.57;3.08;;;18.00;97.90;;;;;;5044491;28;20044;-36
2022/05/16 05:18:08;;;;;;;10.75;3.63;;;18.10;97.80;;;;;;5053950;28;20022;-35
2022/05/16 05:20:33;;;;;;;9.40;2.83;;;18.20;97.80;;;;;;5048100;28;20056;-37
2022/05/16 05:23:00;;;;;;;10.93;3.33;;;18.30;97.70;;;;;;5037124;28;20018;-38
2022/05/16 05:25:26;;;;;;;5.90;3.00;;;18.40;97.70;;;;;;5050800;28;20471;-38
2022/05/16 05:27:52;;;;;;;6.05;3.10;;;18.50;97.50;;;;;;5053198;28;20259;-37
2022/05/16 05:30:21;;;;;;;4.10;2.55;;;18.60;97.40;;;;;;5050231;28;20492;-39
2022/05/16 05:32:47;;;;;;;7.07;2.70;;;18.70;97.40;;;;;;5052064;28;20021;-37
2022/05/16 05:35:14;;;;;;;7.93;3.30;;;18.80;97.30;;;;;;5051582;28;20043;-36
2022/05/16 05:37:40;;;;;;;11.53;4.47;;;18.90;97.30;;;;;;5041629;28;20037;-39
2022/05/16 05:40:07;;;;;;;6.68;3.30;;;19.00;97.20;;;;;;5048453;28;20279;-32
2022/05/16 05:42:33;;;;;;;7.15;2.58;;;19.20;97.30;;;;;;5040466;28;20082;-32
2022/05/16 05:45:00;;;;;;;11.23;2.93;;;19.30;97.00;;;;;;5050209;28;20028;-31
2022/05/16 05:47:26;;;;;;;15.80;3.03;;;19.40;97.00;;;;;;5042687;28;20469;-61
2022/05/16 05:49:53;;;;;;;5.55;3.05;;;19.60;96.70;;;;;;5051547;28;20074;-29
2022/05/16 05:52:19;;;;;;;12.60;3.30;;;19.80;96.60;;;;;;5046530;28;20025;-30
2022/05/16 05:54:46;;;;;;;4.90;2.85;;;19.80;96.30;;;;;;5052841;28;20035;-29
2022/05/16 05:57:12;;;;;;;9.30;3.15;;;19.80;96.40;;;;;;5045842;28;20527;-31
2022/05/16 05:59:38;;;;;;;12.07;3.45;;;19.80;96.50;;;;;;5051347;28;20417;-33
2022/05/16 06:02:06;;;;;;;9.07;3.00;;;19.80;96.80;;;;;;5046440;28;20120;-36
2022/05/16 06:04:32;;;;;;;9.68;3.60;;;20.10;96.70;;;;;;5050823;28;20029;-48
2022/05/16 06:06:58;;;;;;;9.68;3.30;;;20.50;96.10;;;;;;5050872;28;20044;-29
2022/05/16 06:09:24;;;;;;;10.25;3.45;;;20.80;95.90;;;;;;5044267;28;20025;-32
2022/05/16 06:11:50;;;;;;;8.60;4.28;;;20.70;95.90;;;;;;5047383;28;20028;-32
2022/05/16 06:14:17;;;;;;;11.15;3.65;;;20.50;96.20;;;;;;5047617;28;20040;-40
2022/05/16 06:16:42;;;;;;;7.97;3.53;;;20.30;96.30;;;;;;5052676;28;20052;-33
2022/05/16 06:19:11;;;;;;;10.77;3.40;;;20.20;96.70;;;;;;5052504;28;20060;-33
2022/05/16 06:21:38;;;;;;;8.77;3.05;;;20.10;96.70;;;;;;5039556;28;20382;-29
2022/05/16 06:24:04;;;;;;;7.75;3.15;;;20.00;97.20;;;;;;5046247;28;20072;-31
2022/05/16 06:26:30;;;;;;;7.00;2.90;;;20.00;97.10;;;;;;5051572;28;20089;-33
2022/05/16 06:28:57;;;;;;;7.03;3.58;;;20.00;97.40;;;;;;5048659;28;20115;-29
2022/05/16 06:31:23;;;;;;;6.47;3.73;;;20.00;97.00;;;;;;5041125;28;20473;-39
2022/05/16 06:33:49;;;;;;;4.93;3.03;;;20.10;96.90;;;;;;5049927;28;20094;-32
2022/05/16 06:36:15;;;;;;;8.50;3.70;;;20.10;97.00;;;;;;5051690;28;20029;-39
2022/05/16 06:38:41;;;;;;;6.15;2.85;;;20.10;96.80;;;;;;5035652;28;20028;-28
2022/05/16 06:41:07;;;;;;;8.93;3.25;;;20.00;97.00;;;;;;5042751;28;20099;-30
2022/05/16 06:43:37;;;;;;;8.05;3.60;;;19.90;97.30;;;;;;5040666;28;20028;-34
2022/05/16 06:46:03;;;;;;;5.43;3.28;;;19.80;97.40;;;;;;5029715;28;20029;-37
2022/05/16 06:48:29;;;;;;;6.25;2.97;;;19.90;97.40;;;;;;5049970;28;20036;-38
2022/05/16 06:50:56;;;;;;;6.93;3.15;;;19.90;97.40;;;;;;5047117;28;20027;-38
2022/05/16 06:53:27;;;;;;;11.23;3.83;;;19.90;97.60;;;;;;5041961;28;20032;-62
2022/05/16 06:55:54;;;;;;;7.38;4.10;;;19.90;97.70;;;;;;5047251;28;20415;-38
2022/05/16 06:58:20;;;;;;;10.35;3.45;;;19.90;97.60;;;;;;5050968;28;20037;-39
2022/05/16 07:00:47;;;;;;;9.50;3.55;;;19.80;97.70;;;;;;5041941;28;20443;-38
2022/05/16 07:03:13;;;;;;;9.43;3.77;;;19.80;97.90;;;;;;5045110;28;20029;-38
2022/05/16 07:05:40;;;;;;;5.50;3.65;;;19.80;97.70;;;;;;5048270;28;20853;-38
2022/05/16 07:08:06;;;;;;;7.25;2.97;;;19.90;98.00;;;;;;5039789;28;20022;-37
2022/05/16 07:10:32;;;;;;;5.32;3.13;;;19.90;97.80;;;;;;5037080;28;20431;-38
2022/05/16 07:12:59;;;;;;;8.70;3.17;;;19.90;97.80;;;;;;5039373;28;20484;-39
2022/05/16 07:15:25;;;;;;;7.38;2.95;;;19.90;97.80;;;;;;5035957;28;20032;-38
2022/05/16 07:17:51;;;;;;;11.63;4.90;;;19.90;97.60;;;;;;5036550;28;20038;-39
2022/05/16 07:20:18;;;;;;;4.55;3.20;;;19.80;97.70;;;;;;5044034;28;20029;-36
2022/05/16 07:22:46;;;;;;;7.85;3.55;;;19.80;97.90;;;;;;5050370;28;20122;-38
2022/05/16 07:25:13;;;;;;;9.55;3.03;;;19.90;97.90;;;;;;5047992;28;20029;-37
2022/05/16 07:27:59;;;;;;;6.68;3.38;;;19.90;98.10;;;;;;5031084;28;20021;-35
2022/05/16 07:30:35;;;;;;;8.35;3.17;;;20.00;97.90;;;;;;5048307;28;20060;-35
2022/05/16 07:33:02;;;;;;;10.47;4.53;;;20.10;97.80;;;;;;5048483;28;20427;-39
2022/05/16 07:35:31;;;;;;;6.63;3.35;;;20.20;97.70;;;;;;5040219;28;20648;-37
2022/05/16 07:37:58;;;;;;;5.70;3.80;;;20.10;97.80;;;;;;5043874;28;20025;-35
2022/05/16 07:40:27;;;;;;;10.27;4.18;;;20.20;97.90;;;;;;5048087;28;20432;-35
2022/05/16 07:42:53;;;;;;;7.78;4.28;;;20.20;98.00;;;;;;5043005;28;20489;-36
2022/05/16 07:45:21;;;;;;;2.50;2.30;;;20.20;98.00;;;;;;5037567;28;20025;-35
2022/05/16 07:47:47;;;;;;;7.45;3.80;;;20.40;98.00;;;;;;5046342;28;20306;-36
2022/05/16 07:50:13;;;;;;;7.22;4.05;;;20.40;98.10;;;;;;5051845;28;20056;-37
2022/05/16 07:52:46;;;;;;;9.90;4.70;;;20.50;97.70;;;;;;5037015;28;20023;-36
2022/05/16 07:55:13;;;;;;;12.50;3.80;;;20.70;97.40;;;;;;5038670;28;20461;-37
2022/05/16 07:57:38;;;;;;;20.00;4.05;;;20.80;97.40;;;;;;5043446;28;20029;-36
2022/05/16 08:00:05;;;;;;;7.47;4.20;;;20.90;97.70;;;;;;5050001;28;20442;-37
2022/05/16 08:02:31;;;;;;;11.05;4.53;;;21.00;97.50;;;;;;5040274;28;20045;-35
2022/05/16 08:04:57;;;;;;;7.88;4.00;;;21.10;97.50;;;;;;5040689;28;20025;-42
2022/05/16 08:07:23;;;;;;;7.97;4.30;;;21.30;97.40;;;;;;5033309;28;20017;-44
2022/05/16 08:12:35;;;;;;;15.55;4.43;;;21.50;97.20;;;;;;5039082;28;20032;-42
2022/05/16 08:15:00;;;;;;;6.32;4.03;;;21.70;97.40;;;;;;5054364;28;20032;-38
2022/05/16 08:17:28;;;;;;;13.60;4.28;;;21.90;96.80;;;;;;5039115;28;20029;-36
2022/05/16 08:19:56;;;;;;;7.30;4.25;;;22.30;97.10;;;;;;5044795;28;20032;-38
2022/05/16 08:22:29;;;;;;;10.38;4.18;;;22.60;96.50;;;;;;5034995;28;20060;-30
2022/05/16 08:24:54;;;;;;;11.75;3.67;;;22.80;96.40;;;;;;5046358;28;20478;-30
2022/05/16 08:27:20;;;;;;;9.10;4.40;;;22.70;96.50;;;;;;5037339;28;20021;-31
2022/05/16 08:29:45;;;;;;;9.77;4.80;;;22.70;96.50;;;;;;5051988;28;20056;-33
2022/05/16 08:32:15;;;;;;;7.57;3.88;;;22.70;96.10;;;;;;5048297;28;20025;-32
2022/05/16 08:34:42;;;;;;;11.70;3.97;;;22.60;96.40;;;;;;5053286;28;20453;-31
2022/05/16 08:39:52;;;;;;;9.43;3.60;;;22.40;96.80;;;;;;5041453;28;20082;-30
2022/05/16 08:42:31;;;;;;;8.48;3.47;;;22.40;96.90;;;;;;5040872;28;20036;-32
2022/05/16 08:45:03;;;;;;;8.98;4.28;;;22.30;97.30;;;;;;5040041;28;21187;-33
2022/05/16 08:47:35;;;;;;;6.40;4.22;;;22.30;97.30;;;;;;5040812;28;20432;-31
2022/05/16 08:50:14;;;;;;;8.95;4.35;;;22.40;97.70;;;;;;5039506;28;20569;-30
2022/05/16 08:53:05;;;;;;;7.43;4.75;;;23.10;97.00;;;;;;5039697;28;20037;-39
2022/05/16 08:55:48;;;;;;;5.18;4.00;;;23.60;96.00;;;;;;5034638;28;20021;-31
2022/05/16 08:58:20;;;;;;;10.50;4.75;;;24.00;96.10;;;;;;5040222;28;20029;-47
2022/05/16 09:00:53;;;;;;;12.80;4.38;;;24.50;95.10;;;;;;5036902;28;20884;-36
2022/05/16 09:03:31;;;;;;;10.10;4.80;;;25.10;94.60;;;;;;5039864;28;20071;-37
2022/05/16 09:06:01;;;;;;;6.65;3.58;;;25.70;94.40;;;;;;5038949;28;20021;-38
2022/05/16 09:08:42;;;;;;;11.50;4.15;;;26.20;94.20;;;;;;5042952;28;20476;-38
2022/05/16 09:11:09;;;;;;;7.15;4.18;;;26.50;93.80;;;;;;5041665;28;20481;-45
2022/05/16 09:14:05;;;;;;;7.10;4.50;;;27.00;92.90;;;;;;5046648;28;20481;-41
2022/05/16 09:16:46;;;;;;;;;;;27.40;92.60;;;;;;5044081;28;20512;-43
2022/05/16 09:19:40;;;;;;;5.45;3.38;;;27.70;93.00;;;;;;5035059;28;19916;-39
2022/05/16 09:22:36;;;;;;;4.18;2.60;;;28.10;92.20;;;;;;5036653;28;20053;-39
2022/05/16 09:25:15;;;;;;;7.63;2.85;;;28.60;92.10;;;;;;5033686;28;20533;-34
2022/05/16 09:30:28;;;;;;;8.07;2.78;;;29.60;91.00;;;;;;5039040;28;20041;-32
2022/05/16 09:33:02;;;;;;;6.32;3.20;;;30.10;90.50;;;;;;5051251;28;20469;-39
2022/05/16 09:35:58;;;;;;;7.43;3.70;;;30.50;90.20;;;;;;5033700;28;20028;-45
2022/05/16 09:38:24;;;;;;;7.05;4.28;;;30.70;89.40;;;;;;5035446;28;20047;-38
2022/05/16 09:40:59;;;;;;;11.17;5.40;;;30.90;89.50;;;;;;5046179;28;20393;-37
2022/05/16 09:43:27;;;;;;;6.75;3.75;;;31.00;88.40;;;;;;5050687;28;20025;-38
2022/05/16 09:46:24;;;;;;;5.80;4.20;;;30.50;89.90;;;;;;5053146;28;20036;-38
2022/05/16 09:49:18;;;;;;;6.43;3.90;;;30.10;90.30;;;;;;5042192;28;20393;-37
2022/05/16 09:51:53;;;;;;;5.45;3.78;;;30.10;90.00;;;;;;5037200;28;20536;-39
2022/05/16 09:54:35;;;;;;;9.57;3.65;;;29.60;90.30;;;;;;5034588;28;20366;-37
2022/05/16 09:57:03;;;;;;;7.47;3.58;;;29.30;90.70;;;;;;5037911;28;20505;-38
2022/05/16 09:59:51;;;;;;;3.83;3.25;;;29.10;91.00;;;;;;5036732;28;20095;-38
2022/05/16 10:02:24;;;;;;;9.32;3.42;;;29.00;90.90;;;;;;5035518;28;20031;-38
2022/05/16 10:05:12;;;;;;;5.18;3.10;;;29.30;90.60;;;;;;5033724;28;20104;-37
2022/05/16 10:07:45;;;;;;;9.18;3.53;;;29.70;90.50;;;;;;5038945;28;20033;-36
2022/05/16 10:10:25;;;;;;;8.30;4.00;;;30.00;90.40;;;;;;5037428;28;20044;-37
2022/05/16 10:12:53;;;;;;;4.82;3.28;;;29.90;90.50;;;;;;5038566;28;20032;-36
2022/05/16 10:15:19;;;;;;;3.95;2.75;;;29.40;91.30;;;;;;5044688;28;20029;-37
2022/05/16 10:17:47;;;;;;;4.13;2.35;;;29.20;91.30;;;;;;5038378;28;20080;-38
2022/05/16 10:20:19;;;;;;;5.43;3.03;;;29.10;91.20;;;;;;5035378;28;20026;-29
2022/05/16 10:22:45;;;;;;;7.88;3.40;;;28.90;91.50;;;;;;5038310;28;20493;-31
2022/05/16 10:25:25;;;;;;;5.85;3.45;;;28.50;91.90;;;;;;5039045;28;20515;-28
2022/05/16 10:27:52;;;;;;;5.22;3.25;;;28.30;92.40;;;;;;5039894;28;21009;-30
2022/05/16 10:30:24;;;;;;;8.63;3.45;;;28.40;92.50;;;;;;5037813;28;20133;-36
2022/05/16 10:36:03;;;;;;;5.78;3.65;;;28.30;92.50;;;;;;5037032;28;20060;-30
2022/05/16 10:38:47;;;;;;;8.50;3.75;;;28.00;92.80;;;;;;5035859;28;20032;-30
2022/05/16 10:41:26;;;;;;;4.65;3.00;;;27.70;93.30;;;;;;5034523;28;20024;-34
2022/05/16 10:44:16;;;;;;;5.07;2.70;;;27.30;93.70;;;;;;5034688;28;20025;-38
2022/05/16 10:46:47;;;;;;;10.63;3.03;;;27.00;93.90;;;;;;5036282;28;20116;-38
2022/05/16 10:49:18;;;;;;;4.15;2.13;;;26.60;94.10;;;;;;5038078;28;20041;-39
2022/05/16 10:51:57;;;;;;;5.65;2.00;;;26.10;94.50;;;;;;5035766;28;20401;-37
2022/05/16 10:54:24;;;;;;;5.20;2.10;;;25.60;95.50;;;;;;5033346;28;20480;-41
2022/05/16 10:56:53;;;;;;;6.13;2.65;;;25.20;97.20;;;;;;5035410;28;20029;-37
2022/05/16 10:59:28;;;;;;;11.85;3.42;;;24.60;99.60;;;;;;5037251;28;20029;-36
2022/05/16 11:01:53;;;;;;;4.82;2.85;;;24.00;99.90;;;;;;5035370;28;20463;-40
2022/05/16 11:04:46;;;;;;;4.93;2.58;;;23.50;99.90;;;;;;5033780;28;20037;-34
2022/05/16 11:07:50;;;;;;;4.13;2.45;;;22.90;99.90;;;;;;5044704;28;20447;-36
2022/05/16 11:10:47;;;;;;;3.17;1.80;;;22.40;99.90;;;;;;5027293;28;20040;-36
2022/05/16 11:13:25;;;;;;;4.43;2.35;;;21.80;99.90;;;;;;5035356;28;20094;-36
2022/05/16 11:16:23;;;;;;;2.90;1.77;;;21.30;99.90;;;;;;5039666;28;20394;-37
2022/05/16 11:18:53;;;;;;;6.40;2.60;;;21.00;99.90;;;;;;5030033;28;20045;-37
2022/05/16 11:21:44;;;;;;;6.07;3.42;;;20.70;99.90;;;;;;5032589;28;20033;-42
2022/05/16 11:24:47;;;;;;;4.63;2.47;;;20.40;99.90;;;;;;5038871;28;20056;-37
2022/05/16 11:27:35;;;;;;;11.35;2.83;;;20.20;99.90;;;;;;5043642;28;20357;-36
2022/05/16 11:30:19;;;;;;;8.25;4.60;;;20.20;99.90;;;;;;5044092;28;20135;-36
2022/05/16 11:33:07;;;;;;;10.68;3.45;;;20.20;99.90;;;;;;5048561;28;20075;-37
2022/05/16 11:35:43;;;;;;;8.07;3.35;;;20.30;99.90;;;;;;5039580;28;20033;-36
2022/05/16 11:39:02;;;;;;;4.72;3.15;;;20.40;99.90;;;;;;5035319;28;20060;-38
2022/05/16 11:42:07;;;;;;;5.82;3.85;;;20.40;99.90;;;;;;5021082;28;20055;-38
2022/05/16 11:45:08;;;;;;;8.27;3.88;;;20.40;99.90;;;;;;4994059;28;20065;-33
2022/05/16 11:47:48;;;;;;;8.15;4.03;;;20.40;99.90;;;;;;5037262;28;20430;-40
2022/05/16 11:50:22;;;;;;;8.88;4.43;;;20.50;99.90;;;;;;5040691;28;20512;-38
2022/05/16 11:53:04;;;;;;;7.53;4.60;;;20.60;99.90;;;;;;5037828;28;20573;-38
2022/05/16 12:01:26;;;;;;;9.40;5.25;;;20.80;99.90;;;;;;5038690;28;20068;-38
2022/05/16 12:04:21;;;;;;;9.05;5.57;;;20.90;99.90;;;;;;5037551;28;20037;-37
2022/05/16 12:06:50;;;;;;;16.10;7.60;;;21.10;99.90;;;;;;5040946;28;20036;-37
2022/05/16 12:09:23;;;;;;;14.52;8.52;;;21.10;99.90;;;;;;5038047;28;20071;-39
2022/05/16 12:12:00;;;;;;;24.13;10.48;;;21.00;99.90;;;;;;5042483;28;20503;-37
2022/05/16 12:14:34;;;;;;;19.90;9.93;;;20.90;99.90;;;;;;5037599;28;20041;-35
2022/05/16 12:17:18;;;;;;;18.42;10.15;;;20.70;99.90;;;;;;5042646;28;20493;-37
2022/05/16 12:19:49;;;;;;;21.67;10.18;;;20.50;99.90;;;;;;5038871;28;20086;-35
2022/05/16 12:22:36;;;;;;;18.88;9.43;;;20.50;99.90;;;;;;5038300;28;20025;-32
2022/05/16 12:25:04;;;;;;;14.98;7.93;;;20.50;99.90;;;;;;5037246;28;20224;-37
2022/05/16 12:27:36;;;;;;;13.20;7.70;;;20.60;99.90;;;;;;5037779;28;20064;-38
2022/05/16 12:30:34;;;;;;;13.95;6.10;;;20.60;99.90;;;;;;5035487;28;20033;-38
2022/05/16 12:33:00;;;;;;;11.68;6.53;;;20.70;99.90;;;;;;5036958;28;20508;-39
2022/05/16 12:35:45;;;;;;;11.18;6.57;;;20.60;99.90;;;;;;5035488;28;20176;-37
2022/05/16 12:38:13;;;;;;;19.98;7.13;;;20.50;99.90;;;;;;5034802;28;20401;-38
2022/05/16 12:41:03;;;;;;;14.63;6.60;;;20.50;99.90;;;;;;5038581;28;20032;-35
2022/05/16 12:43:35;;;;;;;11.00;6.03;;;20.60;99.90;;;;;;5039208;28;20436;-38
2022/05/16 12:46:09;;;;;;;14.70;5.55;;;20.50;99.90;;;;;;5037196;28;20071;-37
2022/05/16 12:49:00;;;;;;;17.02;6.70;;;20.20;99.90;;;;;;5037178;28;20117;-33
2022/05/16 12:51:44;;;;;;;17.65;6.97;;;20.10;99.90;;;;;;5039286;28;20427;-32
2022/05/16 12:54:19;;;;;;;14.77;7.20;;;20.00;99.90;;;;;;5038502;28;20029;-39
2022/05/16 12:56:54;;;;;;;11.27;7.07;;;20.10;99.90;;;;;;5038960;28;20489;-37
2022/05/16 12:59:32;;;;;;;14.23;6.40;;;20.20;99.90;;;;;;5034564;28;20021;-39
2022/05/16 13:02:06;;;;;;;;;;;20.30;99.90;;;;;;5042344;28;20024;-31
2022/05/16 13:04:52;;;;;;;17.48;8.68;;;20.20;99.90;;;;;;5038083;28;20311;-40
2022/05/16 13:07:27;;;;;;;19.20;8.07;;;20.20;99.90;;;;;;5038511;28;20566;-38
2022/05/16 13:09:52;;;;;;;13.70;7.57;;;20.30;99.90;;;;;;5039683;28;20389;-40
2022/05/16 13:12:38;;;;;;;18.55;7.95;;;20.40;99.90;;;;;;5038499;28;20025;-38
2022/05/16 13:15:07;;;;;;;18.00;7.95;;;20.40;99.90;;;;;;5036616;28;20075;-35
2022/05/16 13:17:44;;;;;;;17.85;8.93;;;20.30;99.90;;;;;;5037378;28;20078;-39
2022/05/16 13:20:13;;;;;;;;;;;20.30;99.90;;;;;;5037842;28;20392;-39
2022/05/16 13:22:42;;;;;;;21.27;8.23;;;20.70;99.90;;;;;;5039922;28;19909;-33
2022/05/16 13:25:08;;;;;;;15.00;8.02;;;21.00;99.90;;;;;;5037853;28;20040;-50
2022/05/16 13:30:21;;;;;;;17.05;7.30;;;20.90;99.90;;;;;;5039734;28;20091;-37
2022/05/16 13:32:48;;;;;;;11.05;7.40;;;21.10;99.90;;;;;;5037034;28;20033;-41
2022/05/16 13:35:38;;;;;;;11.00;6.47;;;21.50;99.90;;;;;;5037010;28;20043;-38
2022/05/16 13:38:06;;;;;;;19.48;7.07;;;21.30;99.90;;;;;;5039298;28;20120;-33
2022/05/16 13:40:41;;;;;;;17.02;6.40;;;21.40;99.90;;;;;;5036045;28;20036;-39